createdAt,value
2022-09-24T00:01:39.370Z,5.70
2022-09-24T00:04:12.897Z,8.20
2022-09-24T00:06:46.863Z,4.20
2022-09-24T00:09:22.323Z,6.40
2022-09-24T00:11:53.779Z,7.30
2022-09-24T00:14:24.529Z,7.20
2022-09-24T00:16:54.163Z,7.60
2022-09-24T00:19:23.988Z,6.80
2022-09-24T00:21:53.538Z,4.80
2022-09-24T00:24:41.231Z,8.60
2022-09-24T00:27:13.411Z,9.00
2022-09-24T00:29:44.456Z,7.30
2022-09-24T00:32:13.867Z,7.10
2022-09-24T00:34:44.348Z,7.20
2022-09-24T00:37:13.436Z,5.60
2022-09-24T00:39:43.701Z,7.30
2022-09-24T00:42:14.192Z,6.40
2022-09-24T00:44:45.748Z,5.60
2022-09-24T00:47:57.734Z,7.90
2022-09-24T00:50:35.901Z,5.70
2022-09-24T00:53:15.756Z,4.20
2022-09-24T00:55:50.866Z,6.10
2022-09-24T00:58:19.885Z,6.10
2022-09-24T01:00:53.971Z,8.50
2022-09-24T01:03:27.202Z,11.70
2022-09-24T01:05:57.970Z,11.60
2022-09-24T01:08:30.364Z,8.90
2022-09-24T01:11:20.007Z,10.50
2022-09-24T01:14:11.716Z,9.30
2022-09-24T01:17:13.265Z,7.10
2022-09-24T01:20:14.887Z,9.70
2022-09-24T01:23:08.748Z,6.00
2022-09-24T01:26:05.631Z,7.20
2022-09-24T01:29:21.154Z,8.90
2022-09-24T01:32:32.351Z,14.20
2022-09-24T01:35:18.232Z,7.80
2022-09-24T01:37:54.470Z,20.30
2022-09-24T01:40:28.033Z,10.00
2022-09-24T01:43:01.541Z,11.10
2022-09-24T01:45:32.302Z,9.70
2022-09-24T01:48:04.862Z,8.20
2022-09-24T01:50:42.696Z,6.70
2022-09-24T01:53:20.404Z,7.70
2022-09-24T01:55:53.958Z,5.60
2022-09-24T01:58:33.879Z,10.70
2022-09-24T02:01:08.725Z,5.10
2022-09-24T02:03:46.030Z,9.90
2022-09-24T02:06:34.791Z,14.20
2022-09-24T02:09:05.717Z,8.00
2022-09-24T02:11:37.583Z,7.10
2022-09-24T02:14:13.437Z,9.90
2022-09-24T02:16:47.552Z,10.20
2022-09-24T02:19:22.393Z,9.60
2022-09-24T02:21:53.094Z,8.10
2022-09-24T02:24:45.978Z,8.80
2022-09-24T02:27:16.490Z,9.90
2022-09-24T02:29:46.610Z,7.50
2022-09-24T02:32:20.231Z,6.90
2022-09-24T02:35:03.035Z,9.70
2022-09-24T02:37:37.160Z,6.60
2022-09-24T02:40:09.662Z,6.60
2022-09-24T02:42:41.511Z,7.40
2022-09-24T02:45:12.419Z,9.60
2022-09-24T02:47:42.654Z,8.80
2022-09-24T02:50:13.596Z,6.00
2022-09-24T02:52:42.995Z,6.90
2022-09-24T02:55:13.715Z,7.40
2022-09-24T02:57:42.667Z,8.90
2022-09-24T03:00:14.942Z,7.10
2022-09-24T03:02:45.660Z,7.00
2022-09-24T03:05:18.618Z,9.70
2022-09-24T03:07:48.545Z,7.60
2022-09-24T03:10:19.501Z,7.60
2022-09-24T03:12:48.953Z,10.00
2022-09-24T03:15:44.989Z,11.10
2022-09-24T03:18:16.672Z,7.00
2022-09-24T03:20:56.088Z,8.20
2022-09-24T03:23:25.512Z,8.90
2022-09-24T03:25:58.581Z,7.30
2022-09-24T03:28:32.244Z,9.40
2022-09-24T03:31:02.016Z,6.90
2022-09-24T03:33:33.209Z,10.20
2022-09-24T03:36:31.332Z,7.90
2022-09-24T03:39:01.766Z,9.00
2022-09-24T03:41:31.310Z,9.10
2022-09-24T03:44:01.591Z,8.00
2022-09-24T03:46:30.822Z,7.70
2022-09-24T03:49:05.541Z,7.80
2022-09-24T03:51:34.490Z,8.60
2022-09-24T03:54:06.286Z,8.10
2022-09-24T03:56:36.695Z,11.60
2022-09-24T03:59:07.043Z,8.30
2022-09-24T04:01:37.814Z,6.90
2022-09-24T04:04:07.820Z,9.20
2022-09-24T04:06:36.760Z,8.90
2022-09-24T04:09:07.639Z,11.10
2022-09-24T04:11:37.143Z,11.50
2022-09-24T04:14:08.097Z,12.90
2022-09-24T04:16:37.141Z,15.30
2022-09-24T04:19:08.563Z,10.10
2022-09-24T04:21:37.388Z,12.80
2022-09-24T04:24:08.064Z,9.50
2022-09-24T04:26:37.104Z,8.80
2022-09-24T04:29:09.335Z,10.20
2022-09-24T04:31:40.955Z,12.60
2022-09-24T04:34:11.811Z,8.10
2022-09-24T04:36:40.619Z,8.70
2022-09-24T04:39:09.673Z,10.00
2022-09-24T04:41:44.391Z,21.00
2022-09-24T04:44:15.044Z,12.70
2022-09-24T04:46:44.036Z,12.70
2022-09-24T04:49:13.098Z,12.40
2022-09-24T04:51:43.168Z,9.40
2022-09-24T04:54:13.862Z,11.40
2022-09-24T04:56:44.874Z,15.10
2022-09-24T04:59:14.726Z,10.90
2022-09-24T05:01:44.034Z,10.30
2022-09-24T05:04:13.167Z,9.80
2022-09-24T05:06:42.616Z,26.00
2022-09-24T05:09:12.959Z,15.10
2022-09-24T05:11:42.929Z,14.40
2022-09-24T05:15:02.668Z,17.90
2022-09-24T05:17:32.017Z,15.20
2022-09-24T05:20:03.917Z,16.30
2022-09-24T05:22:32.999Z,11.20
2022-09-24T05:25:04.352Z,11.90
2022-09-24T05:27:36.285Z,9.10
2022-09-24T05:30:06.743Z,16.00
2022-09-24T05:32:38.460Z,13.50
2022-09-24T05:35:10.990Z,11.10
2022-09-24T05:37:41.900Z,27.10
2022-09-24T05:40:30.098Z,28.90
2022-09-24T05:43:02.476Z,19.50
2022-09-24T05:45:33.934Z,16.90
2022-09-24T05:48:02.699Z,12.40
2022-09-24T05:50:33.526Z,10.30
2022-09-24T05:53:04.195Z,9.20
2022-09-24T05:55:33.854Z,9.30
2022-09-24T05:58:13.916Z,8.20
2022-09-24T06:00:45.974Z,7.40
2022-09-24T06:03:17.127Z,7.70
2022-09-24T06:05:50.192Z,7.40
2022-09-24T06:08:21.915Z,8.40
2022-09-24T06:10:51.563Z,7.50
2022-09-24T06:14:41.389Z,9.20
2022-09-24T06:17:11.374Z,9.30
2022-09-24T06:19:41.081Z,25.90
2022-09-24T06:22:12.102Z,22.70
2022-09-24T06:24:41.630Z,14.90
2022-09-24T06:27:12.887Z,7.30
2022-09-24T06:29:42.152Z,8.20
2022-09-24T06:32:12.494Z,8.80
2022-09-24T06:34:41.898Z,8.60
2022-09-24T06:37:15.436Z,5.20
2022-09-24T06:39:45.483Z,7.10
2022-09-24T06:42:16.387Z,9.00
2022-09-24T06:44:45.361Z,6.20
2022-09-24T06:47:14.178Z,5.90
2022-09-24T06:49:43.838Z,5.00
2022-09-24T06:52:12.727Z,5.30
2022-09-24T06:54:41.877Z,6.80
2022-09-24T06:57:12.756Z,5.70
2022-09-24T06:59:42.180Z,6.40
2022-09-24T07:02:12.945Z,5.90
2022-09-24T07:04:42.539Z,7.80
2022-09-24T07:07:30.713Z,6.50
2022-09-24T07:10:03.394Z,4.50
2022-09-24T07:12:35.024Z,11.00
2022-09-24T07:15:31.677Z,5.30
2022-09-24T07:18:00.627Z,6.40
2022-09-24T07:20:29.692Z,5.70
2022-09-24T07:22:58.606Z,7.10
2022-09-24T07:25:27.372Z,6.20
2022-09-24T07:27:56.262Z,7.10
2022-09-24T07:30:27.223Z,5.50
2022-09-24T07:32:57.119Z,5.30
2022-09-24T07:35:28.182Z,8.80
2022-09-24T07:38:23.760Z,5.70
2022-09-24T07:41:01.431Z,6.10
2022-09-24T07:43:32.452Z,10.90
2022-09-24T07:46:03.336Z,6.60
2022-09-24T07:48:33.559Z,5.40
2022-09-24T07:51:02.571Z,6.40
2022-09-24T07:53:32.212Z,9.20
2022-09-24T07:56:02.898Z,4.50
2022-09-24T07:58:32.471Z,8.20
2022-09-24T08:01:04.902Z,7.10
2022-09-24T08:03:35.401Z,9.70
2022-09-24T08:06:05.436Z,5.40
2022-09-24T08:08:35.722Z,7.90
2022-09-24T08:11:09.010Z,4.90
2022-09-24T08:13:41.272Z,5.20
2022-09-24T08:16:10.259Z,22.30
2022-09-24T08:18:42.447Z,7.80
2022-09-24T08:21:15.855Z,4.90
2022-09-24T08:23:48.428Z,4.80
2022-09-24T08:26:18.907Z,6.20
2022-09-24T08:28:50.978Z,5.80
2022-09-24T08:31:21.395Z,9.20
2022-09-24T08:33:52.515Z,5.00
2022-09-24T08:36:28.563Z,3.10
2022-09-24T08:38:57.776Z,5.70
2022-09-24T08:42:00.737Z,7.40
2022-09-24T08:45:18.247Z,5.60
2022-09-24T08:47:57.555Z,3.80
2022-09-24T08:50:35.866Z,4.50
2022-09-24T08:53:17.952Z,4.30
2022-09-24T08:55:51.153Z,5.90
2022-09-24T08:58:32.389Z,5.30
2022-09-24T09:01:13.604Z,4.60
2022-09-24T09:04:03.962Z,3.30
2022-09-24T09:06:54.458Z,4.30
2022-09-24T09:09:33.768Z,4.00
2022-09-24T09:12:10.941Z,3.60
2022-09-24T09:14:49.698Z,20.20
2022-09-24T09:17:36.076Z,5.60
2022-09-24T09:20:13.760Z,5.10
2022-09-24T09:22:48.427Z,6.70
2022-09-24T09:25:25.183Z,4.80
2022-09-24T09:28:01.219Z,12.50
2022-09-24T09:30:43.944Z,7.50
2022-09-24T09:33:16.782Z,3.90
2022-09-24T09:35:45.625Z,7.70
2022-09-24T09:38:38.806Z,9.20
2022-09-24T09:41:45.749Z,7.20
2022-09-24T09:44:22.621Z,3.90
2022-09-24T09:47:19.405Z,4.20
2022-09-24T09:49:53.082Z,3.60
2022-09-24T09:52:29.794Z,12.50
2022-09-24T09:55:01.737Z,5.90
2022-09-24T09:57:31.836Z,3.90
2022-09-24T10:00:02.748Z,4.00
2022-09-24T10:02:44.340Z,6.90
2022-09-24T10:05:27.420Z,5.10
2022-09-24T10:10:31.008Z,7.80
2022-09-24T10:13:13.049Z,4.30
2022-09-24T10:16:00.322Z,5.40
2022-09-24T10:18:48.636Z,5.40
2022-09-24T10:21:37.920Z,5.40
2022-09-24T10:24:13.012Z,5.10
2022-09-24T10:26:45.729Z,5.50
2022-09-24T10:29:44.533Z,5.90
2022-09-24T10:32:23.635Z,5.00
2022-09-24T10:35:01.814Z,5.20
2022-09-24T10:37:31.157Z,5.10
2022-09-24T10:40:04.417Z,4.80
2022-09-24T10:42:33.340Z,7.30
2022-09-24T10:45:04.189Z,7.30
2022-09-24T10:47:53.902Z,9.60
2022-09-24T10:50:33.910Z,5.80
2022-09-24T10:53:18.336Z,6.00
2022-09-24T10:56:15.740Z,9.70
2022-09-24T10:59:22.959Z,4.60
2022-09-24T11:02:25.488Z,8.50
2022-09-24T11:05:03.319Z,4.50
2022-09-24T11:08:00.541Z,18.00
2022-09-24T11:10:49.098Z,3.30
2022-09-24T11:13:28.808Z,3.80
2022-09-24T11:16:20.831Z,4.10
2022-09-24T11:19:13.415Z,3.30
2022-09-24T11:22:03.560Z,3.90
2022-09-24T11:25:03.884Z,4.40
2022-09-24T11:27:37.079Z,4.20
2022-09-24T11:32:48.242Z,4.40
2022-09-24T11:35:36.422Z,3.90
2022-09-24T11:38:24.977Z,5.20
2022-09-24T11:41:30.369Z,5.60
2022-09-24T11:44:59.630Z,4.40
2022-09-24T11:47:49.743Z,8.50
2022-09-24T11:50:55.278Z,8.00
2022-09-24T11:53:47.161Z,5.70
2022-09-24T11:56:25.284Z,4.90
2022-09-24T11:59:08.299Z,7.20
2022-09-24T12:01:40.924Z,7.60
2022-09-24T12:04:15.395Z,10.80
2022-09-24T12:07:00.376Z,6.20
2022-09-24T12:09:40.812Z,6.20
2022-09-24T12:12:15.876Z,5.70
2022-09-24T12:15:35.845Z,3.50
2022-09-24T12:18:17.219Z,4.00
2022-09-24T12:21:19.855Z,6.30
2022-09-24T12:23:58.981Z,3.30
2022-09-24T12:26:36.559Z,2.20
2022-09-24T12:29:50.751Z,4.70
2022-09-24T12:32:52.953Z,2.30
2022-09-24T12:35:27.198Z,3.20
2022-09-24T12:38:16.313Z,3.60
2022-09-24T12:41:24.525Z,3.80
2022-09-24T12:44:21.724Z,15.00
2022-09-24T12:46:55.664Z,9.00
2022-09-24T12:49:27.426Z,9.50
2022-09-24T12:52:01.816Z,27.00
2022-09-24T12:54:32.259Z,6.00
2022-09-24T12:57:36.139Z,6.20
2022-09-24T13:00:48.262Z,7.70
2022-09-24T13:03:46.073Z,8.40
2022-09-24T13:06:47.000Z,5.90
2022-09-24T13:09:45.880Z,4.50
2022-09-24T13:12:23.343Z,8.50
2022-09-24T13:15:09.119Z,3.80
2022-09-24T13:17:40.770Z,3.30
2022-09-24T13:20:28.305Z,3.60
2022-09-24T13:23:00.288Z,2.50
2022-09-24T13:25:32.160Z,5.50
2022-09-24T13:28:06.350Z,3.20
2022-09-24T13:30:42.905Z,1.90
2022-09-24T13:33:34.518Z,2.40
2022-09-24T13:36:29.307Z,3.00
2022-09-24T13:39:43.506Z,2.30
2022-09-24T13:42:34.207Z,7.60
2022-09-24T13:45:09.588Z,5.10
2022-09-24T13:47:55.828Z,4.10
2022-09-24T13:50:38.238Z,23.80
2022-09-24T13:53:45.635Z,7.60
2022-09-24T13:56:19.967Z,9.70
2022-09-24T13:58:51.720Z,8.90
2022-09-24T14:01:27.503Z,6.30
2022-09-24T14:04:02.917Z,3.50
2022-09-24T14:06:39.098Z,3.80
2022-09-24T14:09:38.476Z,3.10
2022-09-24T14:12:23.742Z,4.60
2022-09-24T14:15:18.246Z,3.30
2022-09-24T14:18:01.234Z,5.50
2022-09-24T14:20:36.152Z,3.60
2022-09-24T14:23:08.077Z,5.50
2022-09-24T14:25:40.486Z,4.90
2022-09-24T14:28:13.179Z,5.90
2022-09-24T14:30:56.299Z,4.70
2022-09-24T14:33:30.653Z,4.70
2022-09-24T14:36:02.839Z,9.50
2022-09-24T14:38:36.707Z,6.70
2022-09-24T14:41:23.841Z,5.30
2022-09-24T14:44:20.139Z,5.60
2022-09-24T14:46:54.591Z,6.30
2022-09-24T14:49:31.302Z,22.80
2022-09-24T14:52:06.106Z,14.40
2022-09-24T14:54:40.779Z,10.70
2022-09-24T14:57:36.106Z,14.00
2022-09-24T15:00:26.096Z,9.20
2022-09-24T15:03:01.725Z,14.70
2022-09-24T15:05:32.489Z,8.10
2022-09-24T15:08:23.530Z,11.30
2022-09-24T15:10:59.866Z,15.90
2022-09-24T15:13:38.571Z,5.90
2022-09-24T15:16:32.922Z,3.90
2022-09-24T15:19:31.152Z,17.30
2022-09-24T15:22:02.346Z,10.10
2022-09-24T15:24:33.006Z,12.70
2022-09-24T15:27:15.883Z,4.40
2022-09-24T15:29:45.565Z,3.60
2022-09-24T15:32:19.711Z,8.30
2022-09-24T15:34:48.928Z,4.30
2022-09-24T15:37:24.067Z,3.80
2022-09-24T15:39:57.955Z,4.00
2022-09-24T15:42:29.557Z,4.50
2022-09-24T15:45:01.832Z,6.70
2022-09-24T15:47:35.088Z,4.90
2022-09-24T15:50:05.266Z,5.70
2022-09-24T15:52:41.326Z,3.90
2022-09-24T15:55:17.881Z,4.00
2022-09-24T15:57:50.530Z,6.70
2022-09-24T16:00:24.541Z,6.20
2022-09-24T16:02:58.005Z,8.70
2022-09-24T16:05:30.093Z,4.20
2022-09-24T16:08:01.947Z,4.10
2022-09-24T16:10:34.139Z,8.20
2022-09-24T16:13:07.253Z,5.60
2022-09-24T16:16:10.580Z,2.80
2022-09-24T16:18:41.212Z,3.90
2022-09-24T16:21:13.642Z,3.50
2022-09-24T16:23:44.854Z,9.70
2022-09-24T16:26:15.537Z,78.90
2022-09-24T16:28:45.555Z,74.60
2022-09-24T16:31:15.742Z,75.70
2022-09-24T16:33:46.210Z,54.40
2022-09-24T16:36:16.392Z,40.80
2022-09-24T16:38:45.315Z,11.60
2022-09-24T16:41:16.684Z,9.60
2022-09-24T16:43:46.326Z,7.90
2022-09-24T16:46:20.464Z,3.90
2022-09-24T16:51:21.257Z,5.60
2022-09-24T16:53:56.026Z,5.00
2022-09-24T16:56:26.364Z,4.40
2022-09-24T16:58:57.352Z,4.10
2022-09-24T17:01:29.050Z,6.90
2022-09-24T17:04:00.984Z,5.00
2022-09-24T17:06:31.575Z,5.90
2022-09-24T17:09:20.696Z,5.10
2022-09-24T17:11:50.423Z,5.60
2022-09-24T17:14:26.233Z,22.60
2022-09-24T17:16:57.993Z,44.20
2022-09-24T17:19:35.633Z,37.90
2022-09-24T17:22:06.867Z,59.00
2022-09-24T17:24:40.679Z,31.90
2022-09-24T17:27:10.812Z,309.40
2022-09-24T17:29:54.549Z,209.80
2022-09-24T17:32:24.686Z,87.70
2022-09-24T17:34:55.351Z,49.80
2022-09-24T17:37:25.186Z,356.30
2022-09-24T17:39:56.656Z,48.90
2022-09-24T17:42:27.824Z,305.40
2022-09-24T17:45:17.220Z,156.40
2022-09-24T17:48:01.266Z,67.50
2022-09-24T17:50:33.024Z,47.90
2022-09-24T17:53:04.378Z,44.80
2022-09-24T17:55:39.498Z,48.80
2022-09-24T17:58:12.512Z,46.80
2022-09-24T18:00:42.933Z,75.70
2022-09-24T18:03:14.632Z,115.60
2022-09-24T18:05:46.146Z,91.40
2022-09-24T18:08:18.931Z,146.40
2022-09-24T18:11:05.574Z,42.20
2022-09-24T18:13:39.222Z,67.40
2022-09-24T18:16:16.777Z,70.80
2022-09-24T18:18:52.262Z,31.30
2022-09-24T18:21:29.687Z,42.50
2022-09-24T18:24:01.192Z,69.20
2022-09-24T18:26:37.231Z,39.70
2022-09-24T18:29:16.179Z,46.20
2022-09-24T18:32:08.053Z,47.30
2022-09-24T18:34:39.022Z,24.80
2022-09-24T18:37:10.297Z,21.00
2022-09-24T18:39:41.222Z,19.70
2022-09-24T18:42:11.643Z,9.60
2022-09-24T18:44:41.974Z,12.60
2022-09-24T18:47:15.240Z,6.00
2022-09-24T18:49:49.422Z,17.60
2022-09-24T18:52:20.099Z,14.30
2022-09-24T18:54:53.140Z,56.00
2022-09-24T18:57:24.198Z,60.40
2022-09-24T18:59:53.923Z,61.70
2022-09-24T19:02:26.767Z,45.20
2022-09-24T19:04:57.211Z,18.20
2022-09-24T19:07:27.033Z,21.70
2022-09-24T19:10:02.502Z,12.90
2022-09-24T19:12:39.165Z,35.20
2022-09-24T19:15:14.911Z,20.60
2022-09-24T19:17:45.875Z,15.40
2022-09-24T19:20:17.792Z,9.10
2022-09-24T19:23:00.420Z,21.70
2022-09-24T19:25:36.902Z,20.10
2022-09-24T19:28:08.696Z,19.30
2022-09-24T19:30:49.645Z,20.10
2022-09-24T19:33:21.811Z,19.50
2022-09-24T19:36:01.137Z,33.40
2022-09-24T19:38:36.077Z,39.50
2022-09-24T19:41:13.417Z,19.70
2022-09-24T19:43:45.803Z,15.00
2022-09-24T19:46:17.423Z,11.40
2022-09-24T19:48:49.801Z,10.40
2022-09-24T19:51:29.142Z,11.00
2022-09-24T19:54:06.995Z,7.90
2022-09-24T19:56:39.421Z,6.70
2022-09-24T19:59:11.522Z,8.00
2022-09-24T20:01:46.730Z,35.10
2022-09-24T20:04:20.919Z,62.00
2022-09-24T20:06:51.559Z,137.40
2022-09-24T20:09:25.555Z,120.30
2022-09-24T20:11:55.374Z,176.90
2022-09-24T20:14:30.236Z,130.60
2022-09-24T20:17:09.235Z,102.70
2022-09-24T20:19:41.031Z,54.80
2022-09-24T20:22:17.120Z,126.60
2022-09-24T20:24:49.253Z,121.90
2022-09-24T20:27:42.110Z,85.00
2022-09-24T20:30:14.065Z,58.20
2022-09-24T20:32:45.840Z,50.40
2022-09-24T20:35:16.271Z,25.60
2022-09-24T20:37:50.646Z,19.90
2022-09-24T20:40:24.087Z,13.90
2022-09-24T20:42:56.475Z,15.20
2022-09-24T20:45:27.166Z,17.90
2022-09-24T20:47:56.982Z,38.20
2022-09-24T20:50:28.297Z,35.20
2022-09-24T20:52:57.285Z,28.60
2022-09-24T20:55:28.027Z,25.80
2022-09-24T20:57:58.822Z,19.10
2022-09-24T21:00:35.945Z,29.30
2022-09-24T21:03:25.944Z,44.40
2022-09-24T21:06:09.566Z,30.70
2022-09-24T21:08:42.055Z,30.10
2022-09-24T21:11:22.925Z,27.70
2022-09-24T21:14:00.966Z,25.40
2022-09-24T21:16:33.959Z,21.70
2022-09-24T21:19:06.245Z,39.50
2022-09-24T21:21:38.822Z,49.70
2022-09-24T21:24:12.916Z,49.90
2022-09-24T21:26:45.607Z,29.00
2022-09-24T21:29:19.229Z,27.00
2022-09-24T21:31:51.707Z,12.40
2022-09-24T21:34:22.798Z,21.30
2022-09-24T21:36:54.072Z,24.40
2022-09-24T21:39:27.011Z,35.30
2022-09-24T21:41:59.926Z,38.60
2022-09-24T21:44:32.352Z,27.00
2022-09-24T21:47:04.508Z,28.30
2022-09-24T21:49:37.019Z,19.10
2022-09-24T21:52:10.589Z,18.50
2022-09-24T21:57:12.424Z,10.70
2022-09-24T22:00:04.606Z,17.40
2022-09-24T22:02:34.909Z,17.90
2022-09-24T22:05:09.287Z,14.70
2022-09-24T22:07:40.857Z,16.80
2022-09-24T22:10:14.203Z,18.40
2022-09-24T22:12:47.068Z,10.60
2022-09-24T22:15:21.896Z,11.40
2022-09-24T22:17:51.305Z,12.00
2022-09-24T22:20:24.573Z,14.40
2022-09-24T22:22:57.126Z,17.40
2022-09-24T22:25:31.653Z,10.60
2022-09-24T22:28:03.365Z,16.50
2022-09-24T22:30:32.974Z,14.60
2022-09-24T22:33:03.142Z,21.90
2022-09-24T22:35:53.473Z,34.00
2022-09-24T22:38:26.326Z,29.50
2022-09-24T22:41:15.559Z,19.10
2022-09-24T22:44:10.506Z,24.00
2022-09-24T22:49:13.695Z,21.00
2022-09-24T22:51:44.112Z,22.90
2022-09-24T22:54:15.278Z,20.30
2022-09-24T22:56:44.210Z,18.60
2022-09-24T22:59:14.770Z,17.50
2022-09-24T23:01:47.229Z,16.40
2022-09-24T23:04:18.141Z,17.50
2022-09-24T23:06:50.623Z,18.20
2022-09-24T23:09:23.711Z,17.40
2022-09-24T23:11:54.372Z,15.70
2022-09-24T23:14:27.893Z,15.40
2022-09-24T23:17:00.241Z,14.50
2022-09-24T23:19:49.430Z,17.80
2022-09-24T23:22:21.093Z,12.70
2022-09-24T23:24:53.958Z,15.60
2022-09-24T23:27:27.389Z,15.20
2022-09-24T23:30:00.366Z,16.60
2022-09-24T23:32:30.974Z,12.50
2022-09-24T23:35:02.414Z,14.20
2022-09-24T23:37:33.391Z,10.40
2022-09-24T23:40:03.812Z,12.70
2022-09-24T23:42:35.341Z,9.80
2022-09-24T23:45:05.633Z,12.20
2022-09-24T23:47:36.913Z,10.60
2022-09-24T23:50:06.685Z,13.40
2022-09-24T23:52:35.880Z,13.50
2022-09-24T23:55:07.750Z,12.60
2022-09-24T23:57:38.688Z,11.60
